Time;durP1;ratioP1;P1;durP2;ratioP2;P2;SDS_P1;SDS_P2;PMS_P1;PMS_P2;Temp;Humidity;BMP_temperature;BMP_pressure;BME280_temperature;BME280_humidity;BME280_pressure;Samples;Min_cycle;Max_cycle;Signal;HPM_P1;HPM_P2
2022/12/03 00:01:56;;;;;;;;;;;;;;;3.45;52.60;101946.91;5033325;28;19922;-53
2022/12/03 00:04:21;;;;;;;;;;;;;;;3.43;52.85;101951.16;5034536;28;19928;-55
2022/12/03 00:06:46;;;;;;;;;;;;;;;3.52;52.82;101943.69;5034466;28;19921;-54
2022/12/03 00:09:12;;;;;;;;;;;;;;;3.56;52.77;101944.69;5033080;28;19929;-55
2022/12/03 00:11:37;;;;;;;;;;;;;;;3.48;52.65;101944.44;5034224;28;19924;-55
2022/12/03 00:14:02;;;;;;;;;;;;;;;3.32;52.73;101943.03;5032965;28;20339;-55
2022/12/03 00:16:27;;;;;;;;;;;;;;;3.19;52.92;101931.38;5033938;28;19921;-55
2022/12/03 00:18:53;;;;;;;;;;;;;;;3.31;52.85;101933.50;5034240;28;19925;-54
2022/12/03 00:21:18;;;;;;;;;;;;;;;3.15;53.95;101929.50;5033100;28;19928;-54
2022/12/03 00:23:43;;;;;;;;;;;;;;;3.21;52.97;101927.09;5034185;28;19927;-52
2022/12/03 00:26:09;;;;;;;;;;;;;;;3.21;53.71;101919.31;5034225;28;19921;-53
2022/12/03 00:28:34;;;;;;;;;;;;;;;3.18;53.27;101921.78;5034544;28;20280;-55
2022/12/03 00:30:59;;;;;;;;;;;;;;;3.25;53.52;101930.69;5032811;28;19929;-55
2022/12/03 00:33:24;;;;;;;;;;;;;;;3.32;53.43;101918.78;5034263;28;19921;-54
2022/12/03 00:35:49;;;;;;;;;;;;;;;3.30;53.00;101920.44;5033908;28;20359;-54
2022/12/03 00:38:15;;;;;;;;;;;;;;;3.43;52.89;101912.19;5033977;28;19962;-53
2022/12/03 00:40:40;;;;;;;;;;;;;;;3.48;52.92;101920.16;5032906;28;20432;-54
2022/12/03 00:43:05;;;;;;;;;;;;;;;3.36;52.77;101918.03;5034150;28;19922;-52
2022/12/03 00:45:31;;;;;;;;;;;;;;;3.37;52.75;101918.09;5043265;28;19917;-54
2022/12/03 00:47:56;;;;;;;;;;;;;;;3.25;53.34;101916.81;5054389;28;20008;-53
2022/12/03 00:50:21;;;;;;;;;;;;;;;3.35;53.50;101922.38;5054273;28;20319;-55
2022/12/03 00:52:46;;;;;;;;;;;;;;;3.03;53.02;101920.41;5053713;28;19924;-53
2022/12/03 00:55:12;;;;;;;;;;;;;;;3.20;53.41;101924.47;5054019;28;19928;-53
2022/12/03 00:57:37;;;;;;;;;;;;;;;3.10;53.23;101933.63;5053713;28;19963;-54
2022/12/03 01:00:03;;;;;;;;;;;;;;;3.05;53.53;101930.03;5053717;28;20015;-53
2022/12/03 01:02:28;;;;;;;;;;;;;;;3.07;53.60;101923.19;5053529;28;20353;-53
2022/12/03 01:04:53;;;;;;;;;;;;;;;3.09;53.76;101931.88;5053460;28;19927;-56
2022/12/03 01:07:19;;;;;;;;;;;;;;;3.01;53.63;101922.94;5053495;28;20412;-54
2022/12/03 01:09:44;;;;;;;;;;;;;;;3.01;53.72;101927.28;5053582;28;19942;-56
2022/12/03 01:12:10;;;;;;;;;;;;;;;3.11;53.71;101918.94;5053478;28;19921;-55
2022/12/03 01:14:36;;;;;;;;;;;;;;;3.20;53.59;101912.34;5052058;28;19927;-56
2022/12/03 01:17:01;;;;;;;;;;;;;;;3.29;54.12;101918.69;5053469;28;20012;-54
2022/12/03 01:19:26;;;;;;;;;;;;;;;3.33;53.87;101916.22;5052280;28;19921;-55
2022/12/03 01:21:52;;;;;;;;;;;;;;;3.18;53.59;101921.78;5053573;28;19968;-53
2022/12/03 01:24:17;;;;;;;;;;;;;;;3.03;54.12;101918.69;5052321;28;19928;-54
2022/12/03 01:26:43;;;;;;;;;;;;;;;3.02;54.12;101922.13;5053577;28;19932;-54
2022/12/03 01:29:08;;;;;;;;;;;;;;;3.08;54.23;101921.47;5053748;28;19917;-54
2022/12/03 01:34:17;;;;;;;;;;;;;;;3.10;54.22;101915.47;5057646;28;20308;-55
2022/12/03 01:36:42;;;;;;;;;;;;;;;3.13;54.59;101917.28;5056106;28;19917;-52
2022/12/03 01:39:07;;;;;;;;;;;;;;;3.15;54.25;101911.31;5057068;28;20002;-52
2022/12/03 01:41:34;;;;;;;;;;;;;;;3.04;54.33;101911.81;5056930;28;19921;-52
2022/12/03 01:44:00;;;;;;;;;;;;;;;3.03;54.42;101913.47;5057348;28;20020;-55
2022/12/03 01:46:37;;;;;;;;;;;;;;;2.94;54.79;101915.78;5056870;28;19979;-55
2022/12/03 01:49:02;;;;;;;;;;;;;;;2.89;54.78;101917.34;5057042;28;19924;-54
2022/12/03 01:51:28;;;;;;;;;;;;;;;2.89;55.05;101919.94;5056023;28;19931;-53
2022/12/03 01:53:53;;;;;;;;;;;;;;;3.00;55.48;101916.00;5056648;28;19921;-52
2022/12/03 01:56:19;;;;;;;;;;;;;;;3.05;54.88;101913.56;5056887;28;19928;-55
2022/12/03 01:58:45;;;;;;;;;;;;;;;2.88;54.59;101913.00;5056650;28;19967;-54
2022/12/03 02:01:15;;;;;;;;;;;;;;;2.81;55.00;101914.50;5037700;28;20024;-54
2022/12/03 02:03:41;;;;;;;;;;;;;;;2.92;55.15;101914.88;5036977;28;19917;-55
2022/12/03 02:06:17;;;;;;;;;;;;;;;2.77;55.26;101912.63;5036822;28;19922;-54
2022/12/03 02:08:42;;;;;;;;;;;;;;;2.77;55.67;101911.75;5036572;28;19917;-54
2022/12/03 02:11:26;;;;;;;;;;;;;;;2.65;55.87;101907.00;5036724;28;19928;-54
2022/12/03 02:13:53;;;;;;;;;;;;;;;2.28;56.88;101908.28;5036496;28;20345;-53
2022/12/03 02:16:19;;;;;;;;;;;;;;;2.34;56.16;101905.91;5036685;28;19925;-54
2022/12/03 02:18:44;;;;;;;;;;;;;;;2.56;56.34;101907.56;5036458;28;19925;-53
2022/12/03 02:21:15;;;;;;;;;;;;;;;2.47;56.11;101904.63;5036082;28;20261;-54
2022/12/03 02:23:44;;;;;;;;;;;;;;;2.56;57.52;101907.56;5034955;28;20411;-53
2022/12/03 02:26:09;;;;;;;;;;;;;;;2.63;55.91;101903.47;5036662;28;19917;-50
2022/12/03 02:28:35;;;;;;;;;;;;;;;2.74;55.89;101902.13;5036503;28;19917;-54
2022/12/03 02:31:00;;;;;;;;;;;;;;;2.63;55.71;101904.38;5036345;28;19965;-49
2022/12/03 02:33:25;;;;;;;;;;;;;;;2.66;55.65;101907.03;5036374;28;19921;-51
2022/12/03 02:35:50;;;;;;;;;;;;;;;2.64;55.61;101906.13;5036009;28;19976;-54
2022/12/03 02:38:20;;;;;;;;;;;;;;;2.69;55.87;101908.88;5035993;28;20023;-52
2022/12/03 02:40:46;;;;;;;;;;;;;;;2.66;55.23;101901.84;5034738;28;19917;-52
2022/12/03 02:43:13;;;;;;;;;;;;;;;2.63;55.96;101899.19;5036188;28;19921;-51
2022/12/03 02:45:41;;;;;;;;;;;;;;;2.48;55.57;101901.22;5043515;28;20419;-52
2022/12/03 02:48:06;;;;;;;;;;;;;;;2.63;55.58;101901.78;5055631;28;19917;-53
2022/12/03 02:50:33;;;;;;;;;;;;;;;2.58;55.32;101902.41;5055790;28;19924;-54
2022/12/03 02:53:00;;;;;;;;;;;;;;;2.48;55.27;101909.00;5056491;28;19929;-54
2022/12/03 02:55:26;;;;;;;;;;;;;;;2.62;55.23;101905.16;5055981;28;20398;-52
2022/12/03 02:57:52;;;;;;;;;;;;;;;2.67;55.11;101908.84;5055793;28;20011;-54
2022/12/03 03:00:18;;;;;;;;;;;;;;;2.71;54.86;101902.00;5055644;28;20332;-53
2022/12/03 03:02:44;;;;;;;;;;;;;;;2.52;55.19;101897.91;5038904;28;19917;-55
2022/12/03 03:05:10;;;;;;;;;;;;;;;2.72;55.32;101896.88;5035581;28;20044;-54
2022/12/03 03:07:36;;;;;;;;;;;;;;;2.60;54.79;101899.06;5035278;28;20293;-54
2022/12/03 03:10:02;;;;;;;;;;;;;;;2.47;55.03;101891.66;5035399;28;19921;-55
2022/12/03 03:12:27;;;;;;;;;;;;;;;2.45;55.89;101894.22;5035503;28;19918;-54
2022/12/03 03:14:53;;;;;;;;;;;;;;;2.34;56.18;101892.06;5035340;28;19921;-51
2022/12/03 03:17:18;;;;;;;;;;;;;;;2.42;55.83;101896.69;5035425;28;19932;-52
2022/12/03 03:19:43;;;;;;;;;;;;;;;2.53;55.90;101896.19;5035381;28;19921;-51
2022/12/03 03:22:10;;;;;;;;;;;;;;;2.35;55.56;101891.22;5035320;28;19921;-54
2022/12/03 03:24:35;;;;;;;;;;;;;;;2.60;54.97;101898.19;5035330;28;19917;-52
2022/12/03 03:27:00;;;;;;;;;;;;;;;2.52;55.38;101897.03;5034162;28;19925;-52
2022/12/03 03:29:26;;;;;;;;;;;;;;;2.51;54.96;101893.53;5034122;28;20344;-53
2022/12/03 03:31:51;;;;;;;;;;;;;;;2.33;56.04;101892.88;5035505;28;19921;-52
2022/12/03 03:34:16;;;;;;;;;;;;;;;2.31;55.52;101886.75;5034888;28;19925;-54
2022/12/03 03:36:42;;;;;;;;;;;;;;;2.33;56.83;101893.78;5034980;28;19925;-54
2022/12/03 03:39:08;;;;;;;;;;;;;;;2.39;55.60;101887.91;5035051;28;19960;-53
2022/12/03 03:41:33;;;;;;;;;;;;;;;2.29;55.74;101881.53;5034994;28;20258;-53
2022/12/03 03:43:59;;;;;;;;;;;;;;;2.44;56.63;101888.97;5033624;28;19921;-51
2022/12/03 03:46:24;;;;;;;;;;;;;;;2.26;55.92;101890.91;5034636;28;20376;-54
2022/12/03 03:48:50;;;;;;;;;;;;;;;2.39;55.54;101893.09;5034903;28;19991;-53
2022/12/03 03:51:16;;;;;;;;;;;;;;;2.18;56.82;101894.09;5035099;28;19921;-52
2022/12/03 03:53:43;;;;;;;;;;;;;;;2.16;56.38;101893.16;5032806;28;20450;-52
2022/12/03 03:56:09;;;;;;;;;;;;;;;2.32;56.60;101892.00;5034802;28;19949;-53
2022/12/03 03:58:35;;;;;;;;;;;;;;;2.47;56.11;101884.78;5034845;28;20379;-52
2022/12/03 04:01:00;;;;;;;;;;;;;;;2.36;55.65;101872.25;5034703;28;19947;-52
2022/12/03 04:03:25;;;;;;;;;;;;;;;2.50;55.84;101878.78;5034692;28;19964;-53
2022/12/03 04:05:51;;;;;;;;;;;;;;;2.40;55.72;101879.31;5035115;28;19925;-52
2022/12/03 04:08:16;;;;;;;;;;;;;;;2.56;55.69;101878.16;5034423;28;20324;-54
2022/12/03 04:13:25;;;;;;;;;;;;;;;2.45;56.18;101873.44;5034867;28;19928;-55
2022/12/03 04:15:51;;;;;;;;;;;;;;;2.56;56.25;101871.25;5034364;28;20268;-54
2022/12/03 04:23:45;;;;;;;;;;;;;;;2.20;57.40;101866.53;5022982;28;19932;-52
2022/12/03 04:28:55;;;;;;;;;;;;;;;2.24;58.22;101862.31;5034658;28;19928;-53
2022/12/03 04:36:49;;;;;;;;;;;;;;;2.20;58.16;101856.16;5034381;28;19924;-54
2022/12/03 04:39:14;;;;;;;;;;;;;;;2.01;58.58;101858.91;5032881;28;19917;-51
2022/12/03 04:41:40;;;;;;;;;;;;;;;2.16;58.59;101854.28;5034352;28;19925;-52
2022/12/03 04:46:49;;;;;;;;;;;;;;;2.22;58.61;101848.41;5034184;28;19974;-54
2022/12/03 04:49:14;;;;;;;;;;;;;;;2.24;58.24;101844.16;5034054;28;19917;-53
2022/12/03 04:51:39;;;;;;;;;;;;;;;2.26;58.67;101850.28;5033957;28;19974;-55
2022/12/03 04:54:05;;;;;;;;;;;;;;;2.31;58.77;101848.72;5032467;28;19925;-55
2022/12/03 04:56:30;;;;;;;;;;;;;;;2.19;58.70;101838.81;5033160;28;20498;-53
2022/12/03 04:58:55;;;;;;;;;;;;;;;2.30;58.88;101840.91;5033930;28;19948;-54
2022/12/03 05:01:20;;;;;;;;;;;;;;;2.31;58.47;101840.06;5034059;28;20006;-54
2022/12/03 05:03:46;;;;;;;;;;;;;;;2.25;59.20;101837.28;5034466;28;19933;-53
2022/12/03 05:06:11;;;;;;;;;;;;;;;2.22;58.71;101843.22;5036161;28;20451;-55
2022/12/03 05:08:36;;;;;;;;;;;;;;;2.15;59.06;101831.72;5037966;28;20319;-55
2022/12/03 05:11:01;;;;;;;;;;;;;;;2.19;59.03;101836.22;5037939;28;19967;-54
2022/12/03 05:13:27;;;;;;;;;;;;;;;2.14;59.19;101840.34;5037945;28;19921;-55
2022/12/03 05:15:52;;;;;;;;;;;;;;;2.31;59.18;101833.16;5037726;28;20012;-56
2022/12/03 05:18:17;;;;;;;;;;;;;;;2.49;59.89;101842.44;5037632;28;19921;-54
2022/12/03 05:20:42;;;;;;;;;;;;;;;2.36;58.60;101843.72;5036797;28;19928;-52
2022/12/03 05:23:09;;;;;;;;;;;;;;;2.43;58.41;101845.69;5037644;28;20343;-53
2022/12/03 05:25:34;;;;;;;;;;;;;;;2.29;58.83;101842.63;5037951;28;19924;-55
2022/12/03 05:27:59;;;;;;;;;;;;;;;2.43;58.26;101844.00;5036293;28;19921;-56
2022/12/03 05:30:24;;;;;;;;;;;;;;;2.27;59.50;101838.19;5036304;28;19921;-54
2022/12/03 05:32:50;;;;;;;;;;;;;;;2.22;58.82;101840.63;5037532;28;19990;-53
2022/12/03 05:35:15;;;;;;;;;;;;;;;2.34;58.77;101843.66;5037460;28;20368;-55
2022/12/03 05:37:41;;;;;;;;;;;;;;;2.29;58.82;101845.22;5037424;28;19921;-53
2022/12/03 05:40:06;;;;;;;;;;;;;;;2.34;59.20;101842.78;5037398;28;19921;-53
2022/12/03 05:45:16;;;;;;;;;;;;;;;2.39;58.77;101842.09;5037396;28;19929;-57
2022/12/03 05:47:41;;;;;;;;;;;;;;;2.51;58.63;101835.56;5057100;28;19921;-52
2022/12/03 05:50:06;;;;;;;;;;;;;;;2.54;58.79;101838.28;5047081;28;19925;-54
2022/12/03 05:52:32;;;;;;;;;;;;;;;2.59;58.56;101847.09;5037054;28;19925;-55
2022/12/03 05:54:57;;;;;;;;;;;;;;;2.53;58.31;101840.00;5037193;28;19931;-55
2022/12/03 05:57:22;;;;;;;;;;;;;;;2.56;58.22;101839.22;5037019;28;20012;-54
2022/12/03 05:59:47;;;;;;;;;;;;;;;2.56;58.22;101840.09;5035815;28;19960;-53
2022/12/03 06:02:13;;;;;;;;;;;;;;;2.54;58.13;101835.69;5036881;28;19925;-56
2022/12/03 06:04:38;;;;;;;;;;;;;;;2.51;58.33;101836.44;5036887;28;19925;-56
2022/12/03 06:07:03;;;;;;;;;;;;;;;2.53;58.16;101842.59;5036118;28;19928;-53
2022/12/03 06:09:28;;;;;;;;;;;;;;;2.53;58.42;101840.00;5036676;28;19921;-56
2022/12/03 06:11:54;;;;;;;;;;;;;;;2.63;58.19;101829.09;5036503;28;20330;-54
2022/12/03 06:14:19;;;;;;;;;;;;;;;2.72;58.31;101828.53;5037243;28;19921;-53
2022/12/03 06:16:44;;;;;;;;;;;;;;;2.67;58.07;101830.97;5035908;28;20319;-55
2022/12/03 06:19:10;;;;;;;;;;;;;;;2.79;58.01;101834.78;5036591;28;20015;-54
2022/12/03 06:21:35;;;;;;;;;;;;;;;2.71;58.06;101834.53;5036651;28;20069;-55
2022/12/03 06:24:00;;;;;;;;;;;;;;;2.64;58.36;101832.59;5036573;28;20285;-55
2022/12/03 06:26:25;;;;;;;;;;;;;;;2.74;58.18;101834.63;5036550;28;19944;-55
2022/12/03 06:28:51;;;;;;;;;;;;;;;2.72;58.23;101834.59;5036489;28;19979;-53
2022/12/03 06:31:16;;;;;;;;;;;;;;;2.64;58.76;101838.66;5036438;28;20301;-55
2022/12/03 06:33:41;;;;;;;;;;;;;;;2.77;58.48;101839.94;5036205;28;19925;-55
2022/12/03 06:36:06;;;;;;;;;;;;;;;2.69;58.71;101842.28;5036120;28;19943;-54
2022/12/03 06:38:32;;;;;;;;;;;;;;;2.81;58.30;101840.91;5036178;28;20430;-53
2022/12/03 06:40:57;;;;;;;;;;;;;;;2.70;58.55;101828.47;5036279;28;19968;-52
2022/12/03 06:43:22;;;;;;;;;;;;;;;2.79;58.44;101835.66;5036291;28;19917;-55
2022/12/03 06:45:47;;;;;;;;;;;;;;;2.70;58.58;101827.56;5035703;28;19921;-53
2022/12/03 06:48:13;;;;;;;;;;;;;;;2.61;58.73;101830.75;5036036;28;19921;-54
2022/12/03 06:50:38;;;;;;;;;;;;;;;2.61;58.88;101833.34;5036102;28;19999;-55
2022/12/03 06:53:03;;;;;;;;;;;;;;;2.49;58.94;101832.06;5036342;28;19925;-54
2022/12/03 06:55:28;;;;;;;;;;;;;;;2.64;59.45;101830.88;5036139;28;20373;-54
2022/12/03 06:57:54;;;;;;;;;;;;;;;2.67;59.50;101828.38;5035925;28;20010;-53
2022/12/03 07:00:19;;;;;;;;;;;;;;;2.57;59.10;101836.66;5035759;28;19929;-54
2022/12/03 07:02:44;;;;;;;;;;;;;;;2.57;59.03;101826.28;5035807;28;19921;-52
2022/12/03 07:05:10;;;;;;;;;;;;;;;2.67;59.07;101827.47;5036098;28;20023;-55
2022/12/03 07:07:35;;;;;;;;;;;;;;;2.77;58.57;101826.06;5035159;28;20020;-55
2022/12/03 07:10:00;;;;;;;;;;;;;;;2.74;58.74;101831.16;5035823;28;19965;-55
2022/12/03 07:12:25;;;;;;;;;;;;;;;2.68;58.83;101826.66;5035758;28;19925;-56
2022/12/03 07:14:51;;;;;;;;;;;;;;;2.75;59.17;101828.59;5035617;28;20383;-53
2022/12/03 07:17:16;;;;;;;;;;;;;;;2.79;58.82;101824.41;5035377;28;19929;-53
2022/12/03 07:19:41;;;;;;;;;;;;;;;2.85;58.74;101819.41;5035332;28;20399;-50
2022/12/03 07:22:06;;;;;;;;;;;;;;;2.85;58.88;101824.63;5035856;28;19975;-52
2022/12/03 07:24:32;;;;;;;;;;;;;;;2.89;58.70;101823.88;5035307;28;19928;-52
2022/12/03 07:26:57;;;;;;;;;;;;;;;2.87;58.66;101815.16;5034768;28;20376;-55
2022/12/03 07:29:22;;;;;;;;;;;;;;;2.81;59.10;101822.75;5035009;28;19921;-52
2022/12/03 07:31:47;;;;;;;;;;;;;;;2.78;59.39;101820.03;5017546;28;19929;-55
2022/12/03 07:34:13;;;;;;;;;;;;;;;2.86;59.03;101818.59;5034943;28;20376;-54
2022/12/03 07:36:38;;;;;;;;;;;;;;;2.81;59.22;101818.44;5035587;28;19975;-52
2022/12/03 07:39:03;;;;;;;;;;;;;;;2.73;59.27;101817.31;5033816;28;19960;-54
2022/12/03 07:41:29;;;;;;;;;;;;;;;2.60;60.05;101808.22;5034978;28;19917;-55
2022/12/03 07:43:54;;;;;;;;;;;;;;;2.62;59.98;101813.47;5034946;28;19921;-55
2022/12/03 07:46:19;;;;;;;;;;;;;;;2.62;60.46;101803.97;5041805;28;20446;-53
2022/12/03 07:48:44;;;;;;;;;;;;;;;2.55;60.70;101807.19;5054544;28;20338;-55
2022/12/03 07:51:10;;;;;;;;;;;;;;;2.30;61.03;101805.47;5054825;28;20011;-55
2022/12/03 07:53:35;;;;;;;;;;;;;;;2.48;60.77;101807.81;5054756;28;19932;-53
2022/12/03 07:56:01;;;;;;;;;;;;;;;2.60;60.73;101810.84;5054467;28;20381;-53
2022/12/03 07:58:26;;;;;;;;;;;;;;;2.47;60.94;101819.00;5054667;28;19917;-55
2022/12/03 08:00:51;;;;;;;;;;;;;;;2.42;61.34;101824.03;5053374;28;19947;-54
2022/12/03 08:03:17;;;;;;;;;;;;;;;2.55;60.94;101820.16;5054283;28;19928;-53
2022/12/03 08:05:42;;;;;;;;;;;;;;;2.67;60.29;101820.59;5054835;28;19943;-55
2022/12/03 08:08:07;;;;;;;;;;;;;;;2.73;60.17;101817.31;5053367;28;19921;-52
2022/12/03 08:10:33;;;;;;;;;;;;;;;2.79;60.13;101819.22;5054699;28;19921;-55
2022/12/03 08:12:58;;;;;;;;;;;;;;;2.89;59.95;101819.56;5054562;28;19973;-55
2022/12/03 08:15:25;;;;;;;;;;;;;;;2.99;59.25;101819.84;5054364;28;19924;-51
2022/12/03 08:17:55;;;;;;;;;;;;;;;2.95;59.42;101808.47;5054244;28;19962;-56
2022/12/03 08:20:22;;;;;;;;;;;;;;;2.92;59.16;101811.00;5054234;28;19924;-55
2022/12/03 08:22:49;;;;;;;;;;;;;;;3.08;59.01;101814.97;5054484;28;20465;-55
2022/12/03 08:25:20;;;;;;;;;;;;;;;3.07;58.93;101813.19;5054440;28;19917;-52
2022/12/03 08:27:45;;;;;;;;;;;;;;;3.05;59.19;101815.75;5054261;28;19917;-55
2022/12/03 08:30:12;;;;;;;;;;;;;;;3.04;59.13;101810.53;5053732;28;19963;-54
2022/12/03 08:32:37;;;;;;;;;;;;;;;3.04;59.22;101811.41;5054109;28;19921;-57
2022/12/03 08:35:09;;;;;;;;;;;;;;;2.95;59.08;101814.59;5054193;28;19928;-56
2022/12/03 08:37:34;;;;;;;;;;;;;;;3.05;59.29;101809.69;5054066;28;20011;-55
2022/12/03 08:40:00;;;;;;;;;;;;;;;3.01;59.30;101819.09;5054194;28;19960;-54
2022/12/03 08:42:41;;;;;;;;;;;;;;;3.13;59.02;101809.09;5054021;28;20361;-54
2022/12/03 08:45:26;;;;;;;;;;;;;;;3.09;59.40;101812.41;5054347;28;19920;-53
2022/12/03 08:47:54;;;;;;;;;;;;;;;3.22;58.94;101818.88;5053629;28;19975;-55
2022/12/03 08:50:25;;;;;;;;;;;;;;;3.26;58.80;101809.47;5052076;28;20319;-54
2022/12/03 08:52:51;;;;;;;;;;;;;;;3.34;58.76;101818.38;5034150;28;19925;-56
2022/12/03 08:55:46;;;;;;;;;;;;;;;3.28;58.65;101807.81;5034181;28;19917;-54
2022/12/03 08:58:26;;;;;;;;;;;;;;;3.11;59.14;101810.75;5024992;28;19924;-54
2022/12/03 09:01:10;;;;;;;;;;;;;;;3.12;59.08;101804.72;5033986;28;19921;-52
2022/12/03 09:03:36;;;;;;;;;;;;;;;3.13;59.54;101800.41;5033754;28;19940;-55
2022/12/03 09:06:02;;;;;;;;;;;;;;;3.07;59.83;101803.72;5033706;28;19956;-55
2022/12/03 09:08:27;;;;;;;;;;;;;;;3.17;59.50;101797.94;5034125;28;20284;-51
2022/12/03 09:10:52;;;;;;;;;;;;;;;3.19;60.27;101800.59;5034000;28;19922;-54
2022/12/03 09:13:18;;;;;;;;;;;;;;;3.41;59.66;101795.22;5033858;28;19952;-56
2022/12/03 09:15:43;;;;;;;;;;;;;;;3.41;58.89;101790.03;5033479;28;20339;-55
2022/12/03 09:18:08;;;;;;;;;;;;;;;3.43;59.05;101793.56;5032538;28;19956;-55
2022/12/03 09:20:34;;;;;;;;;;;;;;;3.42;59.03;101790.91;5033989;28;19952;-54
2022/12/03 09:22:59;;;;;;;;;;;;;;;3.36;58.54;101791.63;5033778;28;20270;-54
2022/12/03 09:25:24;;;;;;;;;;;;;;;3.58;58.58;101777.53;5032336;28;19921;-54
2022/12/03 09:27:50;;;;;;;;;;;;;;;3.76;58.63;101776.31;5033712;28;19921;-56
2022/12/03 09:30:15;;;;;;;;;;;;;;;3.69;57.99;101781.31;5033743;28;20011;-54
2022/12/03 09:32:40;;;;;;;;;;;;;;;3.69;57.84;101772.63;5032041;28;20356;-55
2022/12/03 09:35:06;;;;;;;;;;;;;;;3.74;58.21;101778.84;5033663;28;19922;-55
2022/12/03 09:37:31;;;;;;;;;;;;;;;3.80;58.28;101773.84;5033231;28;19925;-56
2022/12/03 09:39:57;;;;;;;;;;;;;;;3.86;57.85;101781.78;5033630;28;20013;-55
2022/12/03 09:42:23;;;;;;;;;;;;;;;3.95;57.24;101776.88;5033507;28;20020;-54
2022/12/03 09:44:48;;;;;;;;;;;;;;;3.91;57.54;101777.63;5032296;28;20379;-55
2022/12/03 09:47:14;;;;;;;;;;;;;;;3.91;57.07;101767.22;5044996;28;19928;-56
2022/12/03 09:49:39;;;;;;;;;;;;;;;3.92;57.58;101776.78;5052220;28;20392;-54
2022/12/03 09:52:05;;;;;;;;;;;;;;;3.90;57.30;101773.22;5056589;28;19925;-53
2022/12/03 09:54:31;;;;;;;;;;;;;;;3.93;57.02;101770.72;5057114;28;20382;-55
2022/12/03 09:56:58;;;;;;;;;;;;;;;4.03;57.40;101777.06;5055628;28;19917;-53
2022/12/03 09:59:25;;;;;;;;;;;;;;;3.80;57.26;101772.97;5057083;28;20315;-56
2022/12/03 10:01:51;;;;;;;;;;;;;;;3.82;57.49;101776.47;5056734;28;19916;-55
2022/12/03 10:04:17;;;;;;;;;;;;;;;3.88;57.50;101769.72;5056669;28;20023;-56
2022/12/03 10:06:43;;;;;;;;;;;;;;;3.88;57.41;101774.06;5056293;28;19924;-55
2022/12/03 10:09:10;;;;;;;;;;;;;;;3.99;57.12;101769.13;5036701;28;19921;-55
2022/12/03 10:11:35;;;;;;;;;;;;;;;3.99;57.16;101772.63;5035580;28;20007;-55
2022/12/03 10:14:01;;;;;;;;;;;;;;;4.01;57.10;101768.34;5036786;28;19975;-55
2022/12/03 10:16:28;;;;;;;;;;;;;;;4.10;56.97;101765.97;5037054;28;20016;-54
2022/12/03 10:18:55;;;;;;;;;;;;;;;3.98;57.13;101764.75;5036416;28;20268;-51
2022/12/03 10:21:37;;;;;;;;;;;;;;;3.98;57.24;101768.25;5036448;28;19924;-54
2022/12/03 10:24:17;;;;;;;;;;;;;;;3.73;57.52;101771.88;5036520;28;19921;-55
2022/12/03 10:26:43;;;;;;;;;;;;;;;3.87;57.74;101767.06;5036985;28;19921;-56
2022/12/03 10:29:21;;;;;;;;;;;;;;;4.01;57.94;101764.84;5036396;28;19928;-54
2022/12/03 10:31:59;;;;;;;;;;;;;;;4.01;57.30;101762.25;5036420;28;19920;-54
2022/12/03 10:34:31;;;;;;;;;;;;;;;3.98;57.22;101760.44;5037033;28;19924;-56
2022/12/03 10:37:16;;;;;;;;;;;;;;;4.07;57.10;101763.31;5036644;28;19917;-55
2022/12/03 10:39:51;;;;;;;;;;;;;;;4.13;56.84;101762.59;5036031;28;19917;-57
2022/12/03 10:42:17;;;;;;;;;;;;;;;4.23;56.82;101763.69;5036523;28;20060;-55
2022/12/03 10:44:42;;;;;;;;;;;;;;;4.26;56.55;101763.78;5036257;28;20368;-56
2022/12/03 10:47:11;;;;;;;;;;;;;;;4.27;56.43;101758.63;5045850;28;20395;-55
2022/12/03 10:49:37;;;;;;;;;;;;;;;4.26;56.81;101754.25;5041689;28;19917;-55
2022/12/03 10:52:03;;;;;;;;;;;;;;;4.35;56.48;101748.41;5036157;28;19936;-53
2022/12/03 10:54:30;;;;;;;;;;;;;;;4.47;56.29;101748.75;5035694;28;20324;-52
2022/12/03 10:56:55;;;;;;;;;;;;;;;4.53;57.03;101750.59;5034994;28;19918;-54
2022/12/03 10:59:22;;;;;;;;;;;;;;;4.58;56.08;101748.97;5035951;28;19917;-55
2022/12/03 11:01:48;;;;;;;;;;;;;;;4.58;55.89;101747.25;5035771;28;19917;-56
2022/12/03 11:04:33;;;;;;;;;;;;;;;4.53;55.81;101741.06;5035919;28;19917;-56
2022/12/03 11:07:00;;;;;;;;;;;;;;;4.64;56.03;101743.94;5035839;28;19917;-55
2022/12/03 11:09:28;;;;;;;;;;;;;;;4.73;55.52;101741.53;5035571;28;19924;-55
2022/12/03 11:11:53;;;;;;;;;;;;;;;4.79;55.36;101738.19;5035824;28;19917;-56
2022/12/03 11:14:55;;;;;;;;;;;;;;;4.93;55.25;101739.41;5036107;28;19943;-54
2022/12/03 11:17:39;;;;;;;;;;;;;;;5.03;54.97;101735.31;4993831;28;20308;-55
2022/12/03 11:20:11;;;;;;;;;;;;;;;4.87;54.98;101728.88;5032381;28;20372;-56
2022/12/03 11:22:39;;;;;;;;;;;;;;;4.91;55.08;101720.28;5035825;28;20288;-53
2022/12/03 11:25:23;;;;;;;;;;;;;;;5.05;55.14;101729.25;5035492;28;19917;-55
2022/12/03 11:28:08;;;;;;;;;;;;;;;5.06;54.70;101724.94;5035351;28;19921;-53
2022/12/03 11:30:49;;;;;;;;;;;;;;;5.07;54.42;101724.09;5035535;28;20024;-56
2022/12/03 11:33:23;;;;;;;;;;;;;;;4.87;54.78;101716.72;5035221;28;20416;-54
2022/12/03 11:36:07;;;;;;;;;;;;;;;4.94;55.12;101720.31;5035221;28;19925;-56
2022/12/03 11:38:43;;;;;;;;;;;;;;;4.69;55.35;101711.94;5034973;28;19921;-55
2022/12/03 11:41:13;;;;;;;;;;;;;;;4.66;55.87;101713.59;5034907;28;20469;-52
2022/12/03 11:43:56;;;;;;;;;;;;;;;4.72;55.61;101705.06;5035063;28;19940;-55
2022/12/03 11:46:23;;;;;;;;;;;;;;;4.87;55.46;101705.44;5036455;28;19944;-55
2022/12/03 11:48:50;;;;;;;;;;;;;;;4.81;55.42;101697.47;5054823;28;20272;-56
2022/12/03 11:51:16;;;;;;;;;;;;;;;4.86;55.95;101696.69;5054887;28;19916;-54
2022/12/03 11:53:42;;;;;;;;;;;;;;;4.80;56.20;101693.09;5054694;28;19921;-56
2022/12/03 11:56:14;;;;;;;;;;;;;;;4.72;55.94;101687.72;5054679;28;19916;-54
2022/12/03 11:59:02;;;;;;;;;;;;;;;4.78;56.23;101692.16;5042041;28;20295;-54
2022/12/03 12:01:35;;;;;;;;;;;;;;;4.56;55.56;101686.47;5054677;28;20365;-56
2022/12/03 12:04:00;;;;;;;;;;;;;;;4.57;56.41;101679.53;5054644;28;19924;-53
2022/12/03 12:06:26;;;;;;;;;;;;;;;4.53;56.01;101686.41;5038348;28;19921;-52
2022/12/03 12:08:51;;;;;;;;;;;;;;;4.64;55.74;101689.25;5035005;28;19924;-51
2022/12/03 12:11:17;;;;;;;;;;;;;;;4.37;56.81;101686.88;5034377;28;20384;-53
2022/12/03 12:13:43;;;;;;;;;;;;;;;4.48;56.58;101688.03;5034565;28;19925;-57
2022/12/03 12:16:08;;;;;;;;;;;;;;;4.42;56.50;101687.84;5034865;28;19921;-55
2022/12/03 12:18:36;;;;;;;;;;;;;;;4.55;56.25;101676.91;5034424;28;19929;-53
2022/12/03 12:21:20;;;;;;;;;;;;;;;4.58;56.28;101678.69;5034496;28;19971;-55
2022/12/03 12:23:46;;;;;;;;;;;;;;;4.61;56.34;101674.44;5034184;28;20012;-54
2022/12/03 12:26:11;;;;;;;;;;;;;;;4.51;56.07;101672.47;5034146;28;20003;-54
2022/12/03 12:28:36;;;;;;;;;;;;;;;4.38;56.60;101670.41;5034441;28;19929;-51
2022/12/03 12:31:01;;;;;;;;;;;;;;;4.44;56.21;101670.56;5034053;28;19925;-56
2022/12/03 12:33:27;;;;;;;;;;;;;;;4.29;56.64;101672.78;5034701;28;19921;-55
2022/12/03 12:35:52;;;;;;;;;;;;;;;4.36;56.57;101682.53;5034282;28;19949;-57
2022/12/03 12:38:18;;;;;;;;;;;;;;;4.28;56.79;101668.44;5034004;28;19967;-56
2022/12/03 12:40:45;;;;;;;;;;;;;;;4.05;57.41;101676.53;5034215;28;19961;-55
2022/12/03 12:43:10;;;;;;;;;;;;;;;4.28;57.31;101673.66;5034298;28;20080;-54
2022/12/03 12:45:37;;;;;;;;;;;;;;;4.24;56.83;101677.88;5033866;28;19964;-54
2022/12/03 12:48:21;;;;;;;;;;;;;;;4.34;56.29;101678.97;5046822;28;19921;-55
2022/12/03 12:50:49;;;;;;;;;;;;;;;4.43;56.36;101674.03;5053847;28;19917;-55
2022/12/03 12:53:14;;;;;;;;;;;;;;;4.47;56.12;101669.75;5053949;28;20007;-55
2022/12/03 12:55:40;;;;;;;;;;;;;;;4.61;56.09;101668.34;5053686;28;20372;-58
2022/12/03 12:58:15;;;;;;;;;;;;;;;4.75;55.90;101666.06;5053909;28;19917;-55
2022/12/03 13:00:41;;;;;;;;;;;;;;;4.82;55.42;101662.75;5053957;28;19917;-54
2022/12/03 13:03:06;;;;;;;;;;;;;;;4.90;55.30;101671.63;5053681;28;19974;-54
2022/12/03 13:05:40;;;;;;;;;;;;;;;4.81;55.37;101666.22;5052185;28;20137;-54
2022/12/03 13:08:25;;;;;;;;;;;;;;;4.95;55.47;101672.63;5052824;28;20006;-55
2022/12/03 13:10:54;;;;;;;;;;;;;;;4.93;55.42;101675.16;5053943;28;19925;-56
2022/12/03 13:13:24;;;;;;;;;;;;;;;4.83;55.43;101665.41;5053534;28;20062;-55